Latest Weather Observations for Bombala AWS

IDN60801

Issued at 9:52 pm EST Tuesday 4 August 2020 (issued every 10 minutes, with the page automatically refreshed every 10 minutes)

About weather observations | Map of weather stations | Latest weather observations for NSW | Other Formats
Station Details ID: 070328 Name: BOMBALA AWS Lat: -37.00 Lon: 149.23 Height: 760.5 m
Data from the previous 72 hours. | See also: Recent months at Bombala AWS
Date/Time
EST
Temp
°C
App
Temp
°C
Dew
Point
°C
Rel
Hum
%
Delta-T
°C
Wind Press
QNH
hPa
Press
MSL
hPa
Rain since
9am
mm
Dir  Spd
km/h
Gust
km/h
Spd
kts
Gust
kts
04/09:30pm 1.8 -6.2 -5.8 57 2.6 WNW 28 37 15 20 1009.1 1009.9 0.0
04/09:00pm 1.9 -6.1 -5.7 57 2.7 WNW 28 37 15 20 1009.1 1009.9 0.0
04/08:30pm 2.0 -6.3 -5.4 58 2.6 WNW 30 41 16 22 1008.9 1009.7 0.0
04/08:00pm 2.3 -5.6 -5.1 58 2.7 WNW 28 35 15 19 1008.9 1009.7 0.0
04/07:30pm 2.5 -5.4 -5.1 57 2.7 WNW 28 37 15 20 1008.9 1009.7 0.0
04/07:00pm 2.8 -5.1 -5.1 56 2.7 NW 28 43 15 23 1008.7 1009.5 0.0
04/06:30pm 3.5 -5.3 -5.7 51 3.1 WNW 32 41 17 22 1008.5 1009.3 0.0
04/06:00pm 3.6 -4.8 -5.8 50 3.2 WNW 30 41 16 22 1008.1 1008.9 0.0
04/05:30pm 4.2 -4.8 -6.4 46 3.6 WNW 33 43 18 23 1007.9 1008.7 0.0
04/05:00pm 4.9 -3.5 -5.7 46 3.7 WNW 30 41 16 22 1007.7 1008.5 0.0
04/04:30pm 5.5 -2.4 -4.6 48 3.6 WNW 28 37 15 20 1007.4 1008.2 0.0
04/04:00pm 5.7 -4.4 -5.6 44 4.0 W 39 54 21 29 1007.1 1007.8 0.0
04/03:30pm 7.6 -2.8 -5.4 39 4.7 WNW 41 52 22 28 1006.5 1007.3 0.0
04/03:00pm 7.1 -3.0 -6.2 38 4.7 WNW 39 52 21 28 1006.1 1006.9 0.0
04/02:30pm 8.5 -1.7 -6.4 34 5.3 NW 39 52 21 28 1005.7 1006.4 0.0
04/02:00pm 8.9 -0.3 -4.6 38 5.1 NW 35 50 19 27 1005.7 1006.4 0.0
04/01:30pm 8.6 -0.5 -3.9 41 4.7 NW 35 46 19 25 1005.7 1006.4 0.0
04/01:00pm 8.8 -2.5 -4.4 39 5.0 WNW 46 61 25 33 1005.6 1006.3 0.0
04/12:31pm 9.1 -2.4 -3.1 42 4.7 WNW 48 67 26 36 1005.7 1006.4 0.0
04/12:30pm 8.9 -3.1 -3.6 41 4.8 WNW 50 67 27 36 1005.7 1006.4 0.0
04/12:19pm 8.9 -2.8 -4.3 39 5.0 WNW 48 63 26 34 1005.4 1006.2 0.0
04/12:00pm 9.4 0.6 -1.3 47 4.4 WNW 35 56 19 30 1005.8 1006.5 0.0
04/11:58am 9.6 1.2 -0.9 48 4.3 WNW 33 56 18 30 1005.7 1006.4 0.0
04/11:30am 10.3 3.1 0.9 52 4.1 WNW 28 35 15 19 1006.3 1007.1 0.0
04/11:00am 9.3 1.1 0.5 54 3.7 WNW 33 48 18 26 1006.7 1007.5 0.0
04/10:35am 9.2 1.8 2.1 61 3.1 WNW 30 48 16 26 1007.3 1008.1 0.0
04/10:30am 8.8 1.4 1.7 61 3.1 WNW 30 41 16 22 1007.4 1008.2 0.0
04/10:08am 8.7 2.8 1.8 62 3.0 WNW 22 37 12 20 1007.4 1008.2 0.0
04/10:00am 9.1 4.7 2.9 65 2.8 NNW 15 19 8 10 1007.6 1008.4 0.0
04/09:30am 8.3 5.2 3.6 72 2.1 N 9 13 5 7 1007.7 1008.5 0.0
04/09:00am 7.0 4.2 2.9 75 1.8 NW 7 11 4 6 1008.1 1008.9 0.0
04/08:30am 6.3 3.5 3.1 80 1.4 NW 7 9 4 5 1007.9 1008.7 0.0
04/08:00am 5.8 2.5 2.4 79 1.5 NNW 9 11 5 6 1007.7 1008.5 0.0
04/07:30am 5.0 1.6 2.0 81 1.3 NNW 9 13 5 7 1007.6 1008.4 0.0
04/07:00am 3.8 -0.8 1.4 84 1.0 NW 15 17 8 9 1007.7 1008.5 0.0
04/06:30am 4.2 -1.2 1.1 80 1.3 NW 19 22 10 12 1007.6 1008.4 0.0
04/06:00am 2.8 -2.3 0.5 85 0.9 NNW 17 19 9 10 1007.8 1008.6 0.0
04/05:30am 3.6 -1.1 1.2 84 1.0 NNW 15 15 8 8 1008.0 1008.8 0.0
04/05:00am 4.0 -0.7 1.0 81 1.2 NNW 15 19 8 10 1008.1 1008.9 0.0
04/04:30am 4.4 -1.2 1.4 81 1.2 NNW 20 22 11 12 1008.6 1009.4 0.0
04/04:00am 4.2 -1.4 1.2 81 1.2 NW 20 22 11 12 1008.5 1009.3 0.0
04/03:30am 3.2 -2.2 1.1 86 0.8 NNW 19 20 10 11 1008.5 1009.3 0.0
04/03:00am 2.8 -1.9 0.9 87 0.8 NNW 15 17 8 9 1008.9 1009.7 0.0
04/02:30am 3.5 -1.9 1.2 85 0.9 NNW 19 20 10 11 1009.2 1010.0 0.0
04/02:00am 4.4 -1.0 1.4 81 1.2 NNW 19 20 10 11 1009.3 1010.1 0.0
04/01:30am 4.3 0.8 1.2 80 1.3 NW 9 11 5 6 1009.9 1010.7 0.0
04/01:00am 4.0 -0.3 0.9 80 1.3 NNW 13 15 7 8 1010.3 1011.1 0.0
04/12:30am 4.4 0.5 1.4 81 1.2 NNW 11 13 6 7 1010.7 1011.6 0.0
04/12:00am 4.2 0.3 0.9 79 1.3 NW 11 15 6 8 1011.3 1012.1 0.0
 
Date/Time
EST
Temp
°C
App
Temp
°C
Dew
Point
°C
Rel
Hum
%
Delta-T
°C
Wind Press
QNH
hPa
Press
MSL
hPa
Rain since
9am
mm
Dir  Spd
km/h
Gust
km/h
Spd
kts
Gust
kts
03/11:30pm 4.8 0.1 0.9 76 1.6 NW 15 17 8 9 1011.6 1012.4 0.0
03/11:00pm 5.7 0.1 1.1 72 1.9 NNW 20 24 11 13 1011.9 1012.8 0.0
03/10:30pm 6.0 0.4 1.3 72 2.0 NW 20 24 11 13 1011.9 1012.8 0.0
03/10:00pm 5.6 0.1 1.7 76 1.6 NNW 20 22 11 12 1012.1 1013.0 0.0
03/09:30pm 5.7 0.7 1.6 75 1.7 NNW 17 19 9 10 1012.4 1013.3 0.0
03/09:00pm 6.0 1.1 1.9 75 1.7 NNW 17 19 9 10 1012.8 1013.6 0.0
03/08:30pm 6.2 1.3 2.3 76 1.7 NW 17 20 9 11 1013.0 1013.9 0.0
03/08:00pm 6.4 1.8 1.7 72 2.0 NW 15 17 8 9 1013.2 1014.1 0.0
03/07:30pm 6.2 1.7 1.9 74 1.8 NNW 15 17 8 9 1013.2 1014.1 0.0
03/07:00pm 7.4 3.2 1.9 68 2.4 NNW 13 15 7 8 1013.2 1014.1 0.0
03/06:30pm 7.4 3.2 1.9 68 2.4 NNW 13 17 7 9 1013.3 1014.2 0.0
03/06:00pm 8.6 4.5 2.2 64 2.8 WNW 13 19 7 10 1013.2 1014.1 0.0
03/05:30pm 9.0 4.1 2.1 62 3.0 WNW 17 20 9 11 1013.3 1014.2 0.0
03/05:00pm 10.8 6.3 1.9 54 3.9 NW 15 22 8 12 1013.2 1014.1 0.0
03/04:30pm 10.5 7.4 3.5 62 3.2 NNW 9 11 5 6 1013.5 1014.4 0.0
03/04:00pm 9.9 6.3 3.0 62 3.1 NNW 11 15 6 8 1013.4 1014.3 0.0
03/03:30pm 9.5 6.5 1.9 59 3.3 NNW 7 11 4 6 1013.5 1014.4 0.0
03/03:00pm 9.4 6.5 1.6 58 3.4 NNW 6 7 3 4 1013.8 1014.7 0.0
03/02:30pm 9.2 6.4 2.1 61 3.1 NNW 6 11 3 6 1014.0 1014.9 0.0
03/02:00pm 9.0 5.3 2.1 62 3.0 NW 11 13 6 7 1014.1 1015.0 0.0
03/01:30pm 9.2 5.4 1.9 60 3.2 NW 11 15 6 8 1014.4 1015.3 0.0
03/01:00pm 9.0 4.3 1.2 58 3.3 NNW 15 17 8 9 1014.8 1015.7 0.0
03/12:30pm 9.2 4.6 1.4 58 3.4 NNW 15 19 8 10 1015.2 1016.2 0.0
03/12:00pm 9.0 3.7 1.7 60 3.2 NNW 19 22 10 12 1015.7 1016.6 0.0
03/11:30am 8.4 3.1 2.0 64 2.8 NNW 19 24 10 13 1016.3 1017.3 0.0
03/11:00am 7.1 3.8 2.2 71 2.1 N 9 13 5 7 1017.1 1018.0 0.0
03/10:30am 6.2 3.3 1.7 73 1.9 NNE 6 9 3 5 1017.4 1018.4 0.0
03/10:00am 5.7 3.4 2.5 80 1.4 NNE 4 9 2 5 1017.6 1018.6 0.0
03/09:30am 4.2 1.3 1.7 84 1.0 NNE 6 7 3 4 1017.7 1018.7 0.0
03/09:00am 2.2 -0.8 0.6 89 0.6 N 6 7 3 4 1017.8 1018.8 0.0
03/08:30am 1.3 -1.5 -0.3 89 0.6 N 4 4 2 2 1017.9 1018.9 0.0
03/08:00am 1.1 -2.1 -0.4 90 0.6 N 6 6 3 3 1017.8 1018.8 0.0
03/07:30am 0.9 -2.2 -0.1 93 0.4 N 6 7 3 4 1018.0 1019.0 0.0
03/07:00am 0.9 -1.8 0.0 94 0.3 N 4 6 2 3 1018.0 1019.0 0.0
03/06:30am 0.5 -2.7 -0.6 92 0.4 N 6 6 3 3 1017.9 1018.9 0.0
03/06:00am 1.2 -2.1 0.2 93 0.4 N 7 9 4 5 1017.8 1018.8 0.0
03/05:30am 0.3 -3.1 -0.4 95 0.3 N 7 9 4 5 1017.9 1018.9 0.0
03/05:00am 0.8 -2.3 -0.1 94 0.3 N 6 6 3 3 1018.0 1019.0 0.0
03/04:30am 0.9 -1.8 0.0 94 0.3 N 4 6 2 3 1018.2 1019.1 0.0
03/04:00am 1.1 -1.2 0.2 94 0.3 N 2 4 1 2 1018.4 1019.4 0.0
03/03:30am 1.3 -1.4 0.4 94 0.3 N 4 4 2 2 1018.8 1019.8 0.0
03/03:00am 1.0 -2.3 0.0 93 0.4 N 7 7 4 4 1019.0 1020.0 0.0
03/02:30am 1.6 -1.5 0.4 92 0.5 NNW 6 7 3 4 1019.2 1020.2 0.0
03/02:00am 1.5 -2.1 0.9 96 0.2 NNW 9 11 5 6 1019.6 1020.6 0.0
03/01:30am 1.0 -2.7 0.1 94 0.3 NNW 9 11 5 6 1019.8 1020.8 0.0
03/01:00am 1.7 -1.9 0.4 91 0.5 NNW 9 9 5 5 1020.2 1021.2 0.0
03/12:30am 2.5 -1.0 1.2 91 0.5 NNW 9 9 5 5 1020.6 1021.7 0.0
03/12:00am 2.2 -1.4 0.9 91 0.5 NNW 9 11 5 6 1021.1 1022.1 0.0
 
Date/Time
EST
Temp
°C
App
Temp
°C
Dew
Point
°C
Rel
Hum
%
Delta-T
°C
Wind Press
QNH
hPa
Press
MSL
hPa
Rain since
9am
mm
Dir  Spd
km/h
Gust
km/h
Spd
kts
Gust
kts
02/11:30pm 3.0 -0.1 1.1 87 0.8 N 7 9 4 5 1021.5 1022.5 0.0
02/11:00pm 3.1 0.1 1.0 86 0.8 N 6 6 3 3 1021.6 1022.6 0.0
02/10:30pm 3.8 1.2 1.0 82 1.1 NW 4 4 2 2 1021.7 1022.7 0.0
02/10:00pm 5.2 2.3 1.5 77 1.5 NW 6 9 3 5 1021.8 1022.9 0.0
02/09:30pm 4.3 0.8 1.3 81 1.2 NNW 9 11 5 6 1021.7 1022.7 0.0
02/09:00pm 5.5 3.0 1.6 76 1.6 NW 4 6 2 3 1022.0 1023.1 0.0
02/08:30pm 5.5 2.6 1.2 74 1.8 WNW 6 6 3 3 1022.1 1023.2 0.0
02/08:00pm 6.4 4.0 1.9 73 1.9 WNW 4 4 2 2 1022.5 1023.5 0.0
02/07:30pm 6.1 3.7 2.4 77 1.6 NW 4 6 2 3 1022.5 1023.5 0.0
02/07:00pm 8.1 5.3 1.9 65 2.7 NE 6 7 3 4 1022.2 1023.3 0.0
02/06:30pm 7.5 5.5 2.4 70 2.2 ENE 2 6 1 3 1022.2 1023.3 0.0
02/06:00pm 9.0 7.4 2.6 64 2.8 CALM 0 0 0 0 1022.1 1023.2 0.0
02/05:30pm 10.9 8.9 -0.2 46 4.7 CALM 0 0 0 0 1022.0 1023.1 0.0
02/05:00pm 12.3 10.4 0.4 44 5.2 CALM 0 0 0 0 1021.9 1023.0 0.0
02/04:30pm 12.7 11.0 2.0 48 4.8 CALM 0 0 0 0 1022.0 1023.1 0.0
02/04:00pm 13.6 11.8 1.3 43 5.5 CALM 0 2 0 1 1022.3 1023.4 0.0
02/03:30pm 13.6 11.4 0.9 42 5.6 WNW 2 6 1 3 1022.3 1023.4 0.0
02/03:00pm 13.3 11.5 1.3 44 5.3 CALM 0 0 0 0 1022.3 1023.4 0.0
02/02:30pm 13.3 11.7 2.2 47 5.1 CALM 0 0 0 0 1022.6 1023.6 0.0
02/02:00pm 12.9 11.3 2.2 48 4.8 CALM 0 4 0 2 1022.8 1023.8 0.0
02/01:30pm 12.6 10.2 2.2 49 4.7 N 4 6 2 3 1022.9 1024.0 0.0
02/01:00pm 11.8 8.8 2.3 52 4.3 N 7 9 4 5 1023.3 1024.4 0.0
02/12:30pm 10.9 8.1 3.2 59 3.5 N 7 11 4 6 1023.5 1024.6 0.0
02/12:00pm 10.2 7.5 2.8 60 3.3 NNW 6 7 3 4 1024.2 1025.3 0.0
02/11:30am 9.2 6.4 2.1 61 3.1 N 6 9 3 5 1024.7 1025.8 0.0
02/11:00am 7.5 4.5 2.2 69 2.3 N 7 9 4 5 1025.1 1026.3 0.0
02/10:30am 6.1 2.7 1.6 73 1.9 NNW 9 11 5 6 1025.3 1026.4 0.0
02/10:00am 4.8 1.4 1.7 80 1.3 N 9 11 5 6 1025.4 1026.5 0.0
02/09:30am 3.6 0.1 1.2 84 1.0 NNW 9 11 5 6 1025.5 1026.6 0.0
02/09:00am 1.8 -1.8 0.5 91 0.5 NW 9 13 5 7 1025.4 1026.5 0.2
02/08:30am 0.1 -3.7 -0.6 95 0.3 N 9 11 5 6 1025.5 1026.6 0.2
02/08:00am -0.7 -4.5 -1.0 98 0.1 NNW 9 11 5 6 1025.3 1026.4 0.0
02/07:30am -1.3 -5.2 -1.4 99 0.0 NW 9 11 5 6 1024.9 1026.0 0.0
02/07:00am -2.1 -4.8 -2.4 98 0.0 NW 2 7 1 4 1024.7 1025.8 0.0
02/06:30am -1.5 -3.7 -1.8 98 0.0 CALM 0 0 0 0 1024.5 1025.6 0.0
02/06:00am -1.7 -4.0 -2.1 97 0.1 CALM 0 0 0 0 1024.2 1025.3 0.0
02/05:30am -1.4 -3.6 -1.8 97 0.1 CALM 0 0 0 0 1023.9 1024.9 0.0
02/05:00am -1.1 -4.4 -1.5 97 0.1 SW 6 7 3 4 1023.7 1024.8 0.0
02/04:30am -1.0 -3.9 -1.3 98 0.1 SSE 4 6 2 3 1023.5 1024.6 0.0
02/04:00am -1.0 -3.2 -1.4 97 0.1 CALM 0 2 0 1 1023.2 1024.3 0.0
02/03:30am -0.7 -4.2 -1.1 97 0.1 NW 7 9 4 5 1023.2 1024.3 0.0
02/03:00am -0.8 -3.0 -1.5 95 0.2 CALM 0 4 0 2 1023.3 1024.4 0.0
02/02:30am -0.1 -2.2 -0.8 95 0.3 CALM 0 0 0 0 1023.5 1024.6 0.0
02/02:00am -0.3 -3.2 -1.0 95 0.2 N 4 7 2 4 1023.9 1024.9 0.0
02/01:30am 0.1 -2.7 -0.6 95 0.3 N 4 6 2 3 1023.9 1024.9 0.0
02/01:00am -0.1 -3.4 -0.9 94 0.3 N 6 6 3 3 1024.0 1025.1 0.0
02/12:30am 0.5 -2.7 -0.6 92 0.4 N 6 7 3 4 1024.0 1025.1 0.0
02/12:00am 1.4 -1.4 -0.2 89 0.6 NW 4 6 2 3 1024.1 1025.2 0.0
 
Date/Time
EST
Temp
°C
App
Temp
°C
Dew
Point
°C
Rel
Hum
%
Delta-T
°C
Wind Press
QNH
hPa
Press
MSL
hPa
Rain since
9am
mm
Dir  Spd
km/h
Gust
km/h
Spd
kts
Gust
kts
01/11:30pm 2.2 0.4 0.9 91 0.5 CALM 0 4 0 2 1024.0 1025.1 0.0
01/11:00pm 1.9 -1.2 0.1 88 0.7 N 6 6 3 3 1023.7 1024.8 0.0
01/10:30pm 2.8 1.0 1.0 88 0.7 CALM 0 0 0 0 1023.7 1024.8 0.0
01/10:00pm 2.6 0.8 1.3 91 0.5 CALM 0 0 0 0 1023.6 1024.7 0.0

Other formats

Comma delimited format used in spreadsheet applications
http://www.bom.gov.au/fwo/IDN60801/IDN60801.94929.axf

JavaScript Object Notation format (JSON) in row-major order
http://www.bom.gov.au/fwo/IDN60801/IDN60801.94929.json

Data quality

Most of these data are generated automatically and are frequently updated. Quality checks on data are not normally performed. It is possible for incorrect values to appear. Refer to information at About Latest Weather Observations and please check the disclaimer before using these data.